createdAt,value
2023-04-02T00:00:23.380Z,97.28
2023-04-02T00:03:03.395Z,96.83
2023-04-02T00:05:59.678Z,97.28
2023-04-02T00:08:40.628Z,96.87
2023-04-02T00:11:11.838Z,96.81
2023-04-02T00:13:46.283Z,96.15
2023-04-02T00:16:27.040Z,96.69
2023-04-02T00:18:59.677Z,96.02
2023-04-02T00:21:39.555Z,95.83
2023-04-02T00:24:21.748Z,96.20
2023-04-02T00:26:52.153Z,95.51
2023-04-02T00:29:22.614Z,95.96
2023-04-02T00:31:54.560Z,95.96
2023-04-02T00:34:33.620Z,95.38
2023-04-02T00:37:07.898Z,95.39
2023-04-02T00:39:41.247Z,95.98
2023-04-02T00:42:14.384Z,95.51
2023-04-02T00:44:50.932Z,95.81
2023-04-02T00:47:28.217Z,95.42
2023-04-02T00:50:01.575Z,95.67
2023-04-02T00:52:34.015Z,95.85
2023-04-02T00:55:10.920Z,95.84
2023-04-02T00:57:44.912Z,95.51
2023-04-02T01:00:23.468Z,96.13
2023-04-02T01:03:29.494Z,96.22
2023-04-02T01:06:10.304Z,96.12
2023-04-02T01:08:56.484Z,96.19
2023-04-02T01:11:48.317Z,96.46
2023-04-02T01:14:39.207Z,96.63
2023-04-02T01:17:31.175Z,96.29
2023-04-02T01:20:41.867Z,96.23
2023-04-02T01:23:16.825Z,95.67
2023-04-02T01:25:50.568Z,96.33
2023-04-02T01:28:29.202Z,95.92
2023-04-02T01:31:04.484Z,96.30
2023-04-02T01:33:39.286Z,96.03
2023-04-02T01:36:17.492Z,96.57
2023-04-02T01:38:56.280Z,96.59
2023-04-02T01:41:31.995Z,96.41
2023-04-02T01:44:08.811Z,96.06
2023-04-02T01:46:44.465Z,96.22
2023-04-02T01:49:25.433Z,95.94
2023-04-02T01:52:07.037Z,96.21
2023-04-02T01:54:43.641Z,96.24
2023-04-02T01:57:14.317Z,95.80
2023-04-02T01:59:49.578Z,95.73
2023-04-02T02:02:23.341Z,96.38
2023-04-02T02:04:52.764Z,95.92
2023-04-02T02:07:23.859Z,96.30
2023-04-02T02:09:56.732Z,96.21
2023-04-02T02:12:30.929Z,96.27
2023-04-02T02:15:00.587Z,96.07
2023-04-02T02:17:34.461Z,96.24
2023-04-02T02:20:12.246Z,95.63
2023-04-02T02:22:45.374Z,95.77
2023-04-02T02:25:18.636Z,95.43
2023-04-02T02:27:55.967Z,95.72
2023-04-02T02:30:35.035Z,95.62
2023-04-02T02:33:13.933Z,95.67
2023-04-02T02:35:55.668Z,95.91
2023-04-02T02:38:59.375Z,96.42
2023-04-02T02:41:46.721Z,96.05
2023-04-02T02:44:25.785Z,95.96
2023-04-02T02:47:01.217Z,95.53
2023-04-02T02:49:35.898Z,95.36
2023-04-02T02:52:17.198Z,95.71
2023-04-02T02:55:13.785Z,95.82
2023-04-02T02:58:06.693Z,95.77
2023-04-02T03:00:45.820Z,95.51
2023-04-02T03:03:19.364Z,95.35
2023-04-02T03:06:05.026Z,95.37
2023-04-02T03:08:47.117Z,95.38
2023-04-02T03:11:29.579Z,95.11
2023-04-02T03:14:06.538Z,95.59
2023-04-02T03:16:41.737Z,95.74
2023-04-02T03:19:25.582Z,95.54
2023-04-02T03:22:05.581Z,95.37
2023-04-02T03:24:53.003Z,95.10
2023-04-02T03:27:26.658Z,95.13
2023-04-02T03:30:07.774Z,94.58
2023-04-02T03:32:42.168Z,94.54
2023-04-02T03:35:24.548Z,94.45
2023-04-02T03:38:00.804Z,93.59
2023-04-02T03:40:36.996Z,93.44
2023-04-02T03:43:14.983Z,93.42
2023-04-02T03:45:47.631Z,93.17
2023-04-02T03:48:25.270Z,92.84
2023-04-02T03:51:15.384Z,92.51
2023-04-02T03:53:53.497Z,92.07
2023-04-02T03:59:25.248Z,91.79
2023-04-02T04:02:04.100Z,91.64
2023-04-02T04:04:34.327Z,91.00
2023-04-02T04:07:03.952Z,91.20
2023-04-02T04:09:38.467Z,91.38
2023-04-02T04:12:25.563Z,90.56
2023-04-02T04:15:00.268Z,90.64
2023-04-02T04:17:38.155Z,90.26
2023-04-02T04:20:21.538Z,89.54
2023-04-02T04:22:55.345Z,89.93
2023-04-02T04:25:34.479Z,89.34
2023-04-02T04:28:21.550Z,89.05
2023-04-02T04:31:03.817Z,89.04
2023-04-02T04:33:42.826Z,88.85
2023-04-02T04:36:28.558Z,88.60
2023-04-02T04:39:21.171Z,87.98
2023-04-02T04:41:56.085Z,88.49
2023-04-02T04:44:27.857Z,88.67
2023-04-02T04:47:06.083Z,88.65
2023-04-02T04:49:46.338Z,87.90
2023-04-02T04:52:22.324Z,87.92
2023-04-02T04:54:52.590Z,87.96
2023-04-02T04:57:35.736Z,87.64
2023-04-02T05:00:18.511Z,87.07
2023-04-02T05:02:54.078Z,86.98
2023-04-02T05:05:30.973Z,86.52
2023-04-02T05:08:17.012Z,86.95
2023-04-02T05:10:51.524Z,86.50
2023-04-02T05:13:30.606Z,86.23
2023-04-02T05:16:15.295Z,85.99
2023-04-02T05:18:51.219Z,85.91
2023-04-02T05:21:28.729Z,85.61
2023-04-02T05:24:08.760Z,85.42
2023-04-02T05:26:44.109Z,85.72
2023-04-02T05:29:22.460Z,85.11
2023-04-02T05:32:03.184Z,85.21
2023-04-02T05:34:42.135Z,84.83
2023-04-02T05:37:19.405Z,85.12
2023-04-02T05:39:54.311Z,84.98
2023-04-02T05:42:26.951Z,85.32
2023-04-02T05:45:16.250Z,85.58
2023-04-02T05:47:47.793Z,85.21
2023-04-02T05:50:30.097Z,84.87
2023-04-02T05:53:06.221Z,84.71
2023-04-02T05:58:37.181Z,84.45
2023-04-02T06:01:46.836Z,83.97
2023-04-02T06:04:26.680Z,83.58
2023-04-02T06:07:07.077Z,83.81
2023-04-02T06:09:41.379Z,83.64
2023-04-02T06:12:18.508Z,83.45
2023-04-02T06:14:48.332Z,83.55
2023-04-02T06:17:22.076Z,82.55
2023-04-02T06:19:53.395Z,82.20
2023-04-02T06:22:36.199Z,82.28
2023-04-02T06:25:12.517Z,81.87
2023-04-02T06:27:47.477Z,81.02
2023-04-02T06:30:26.809Z,80.62
2023-04-02T06:32:58.228Z,80.20
2023-04-02T06:35:29.487Z,80.09
2023-04-02T06:38:07.550Z,79.25
2023-04-02T06:40:45.961Z,78.06
2023-04-02T06:43:43.219Z,77.48
2023-04-02T06:46:37.659Z,77.65
2023-04-02T06:49:25.094Z,76.65
2023-04-02T06:52:03.021Z,76.51
2023-04-02T06:54:35.400Z,76.49
2023-04-02T06:57:15.530Z,75.98
2023-04-02T06:59:47.663Z,75.78
2023-04-02T07:02:31.071Z,74.38
2023-04-02T07:05:08.767Z,73.97
2023-04-02T07:07:40.475Z,74.52
2023-04-02T07:10:19.245Z,73.96
2023-04-02T07:12:49.917Z,74.48
2023-04-02T07:15:23.662Z,73.73
2023-04-02T07:17:56.769Z,73.59
2023-04-02T07:20:33.310Z,72.94
2023-04-02T07:23:07.936Z,73.30
2023-04-02T07:25:37.537Z,72.83
2023-04-02T07:28:07.227Z,73.07
2023-04-02T07:30:36.461Z,73.28
2023-04-02T07:33:05.859Z,72.83
2023-04-02T07:35:37.480Z,72.41
2023-04-02T07:38:12.318Z,72.12
2023-04-02T07:40:42.080Z,72.21
2023-04-02T07:43:11.760Z,72.15
2023-04-02T07:45:41.476Z,72.56
2023-04-02T07:48:12.182Z,72.01
2023-04-02T07:50:45.596Z,71.40
2023-04-02T07:58:44.455Z,70.92
2023-04-02T08:01:26.547Z,70.60
2023-04-02T08:04:09.515Z,70.34
2023-04-02T08:06:40.849Z,71.09
2023-04-02T08:09:10.428Z,71.89
2023-04-02T08:11:42.597Z,71.98
2023-04-02T08:14:12.661Z,72.34
2023-04-02T08:16:49.552Z,71.95
2023-04-02T08:19:19.555Z,72.32
2023-04-02T08:21:54.097Z,71.83
2023-04-02T08:24:23.966Z,71.99
2023-04-02T08:26:53.331Z,71.79
2023-04-02T08:29:22.833Z,72.21
2023-04-02T08:31:52.337Z,72.48
2023-04-02T08:34:21.658Z,72.08
2023-04-02T08:36:59.047Z,71.83
2023-04-02T08:39:32.744Z,72.16
2023-04-02T08:42:18.480Z,71.13
2023-04-02T08:44:56.846Z,71.34
2023-04-02T08:47:30.560Z,71.52
2023-04-02T08:50:10.077Z,72.73
2023-04-02T08:52:41.794Z,73.18
2023-04-02T08:55:27.711Z,73.05
2023-04-02T08:58:07.322Z,72.61
2023-04-02T09:00:41.538Z,72.61
2023-04-02T09:03:17.059Z,72.33
2023-04-02T09:05:53.920Z,72.06
2023-04-02T09:08:27.198Z,72.23
2023-04-02T09:11:04.424Z,72.83
2023-04-02T09:13:37.270Z,72.95
2023-04-02T09:16:15.599Z,73.13
2023-04-02T09:18:46.877Z,72.89
2023-04-02T09:21:29.257Z,72.75
2023-04-02T09:24:01.218Z,73.07
2023-04-02T09:26:41.486Z,72.40
2023-04-02T09:29:41.140Z,72.86
2023-04-02T09:32:25.018Z,72.46
2023-04-02T09:35:24.545Z,73.22
2023-04-02T09:38:18.168Z,72.93
2023-04-02T09:40:50.803Z,72.64
2023-04-02T09:43:24.958Z,71.91
2023-04-02T09:46:03.927Z,71.83
2023-04-02T09:48:36.508Z,72.34
2023-04-02T09:51:14.519Z,72.29
2023-04-02T09:53:51.046Z,72.43
2023-04-02T09:56:25.552Z,72.67
2023-04-02T09:59:05.951Z,72.89
2023-04-02T10:01:37.488Z,73.45
2023-04-02T10:04:08.372Z,73.69
2023-04-02T10:06:53.156Z,74.20
2023-04-02T10:09:29.996Z,74.12
2023-04-02T10:12:03.431Z,74.39
2023-04-02T10:14:37.523Z,73.96
2023-04-02T10:17:21.345Z,74.18
2023-04-02T10:19:57.086Z,74.26
2023-04-02T10:22:26.471Z,73.98
2023-04-02T10:24:55.696Z,73.42
2023-04-02T10:27:37.293Z,72.74
2023-04-02T10:30:21.012Z,72.56
2023-04-02T10:32:57.263Z,72.84
2023-04-02T10:35:40.676Z,72.01
2023-04-02T10:38:21.342Z,70.73
2023-04-02T10:40:56.971Z,70.82
2023-04-02T10:44:16.747Z,69.08
2023-04-02T10:47:01.989Z,68.58
2023-04-02T10:49:38.254Z,68.09
2023-04-02T10:52:13.279Z,67.22
2023-04-02T10:54:53.733Z,66.73
2023-04-02T10:57:35.742Z,64.97
2023-04-02T11:00:20.351Z,65.40
2023-04-02T11:03:05.752Z,65.44
2023-04-02T11:05:44.105Z,65.46
2023-04-02T11:08:21.068Z,64.75
2023-04-02T11:10:55.713Z,64.29
2023-04-02T11:13:29.666Z,64.62
2023-04-02T11:15:59.182Z,63.84
2023-04-02T11:18:35.705Z,63.03
2023-04-02T11:21:12.883Z,62.88
2023-04-02T11:23:58.340Z,62.01
2023-04-02T11:26:54.284Z,61.52
2023-04-02T11:29:27.649Z,61.98
2023-04-02T11:32:29.286Z,62.41
2023-04-02T11:35:38.327Z,62.31
2023-04-02T11:42:00.909Z,64.29
2023-04-02T11:44:35.563Z,64.48
2023-04-02T11:47:19.182Z,65.05
2023-04-02T11:50:27.402Z,65.60
2023-04-02T11:53:03.204Z,66.19
2023-04-02T11:55:34.910Z,66.29
2023-04-02T11:58:25.038Z,65.98
2023-04-02T12:01:32.558Z,65.58
2023-04-02T12:04:24.057Z,66.19
2023-04-02T12:07:10.464Z,65.92
2023-04-02T12:09:47.724Z,65.55
2023-04-02T12:12:29.651Z,65.17
2023-04-02T12:15:00.297Z,65.33
2023-04-02T12:17:40.851Z,66.62
2023-04-02T12:20:22.449Z,66.56
2023-04-02T12:22:59.511Z,65.89
2023-04-02T12:25:33.254Z,65.41
2023-04-02T12:28:07.515Z,65.57
2023-04-02T12:30:42.468Z,65.66
2023-04-02T12:33:30.395Z,64.85
2023-04-02T12:36:01.713Z,64.76
2023-04-02T12:38:32.789Z,64.85
2023-04-02T12:41:07.701Z,64.60
2023-04-02T12:43:42.018Z,64.52
2023-04-02T12:52:28.504Z,63.27
2023-04-02T12:55:00.052Z,63.77
2023-04-02T12:57:41.559Z,63.34
2023-04-02T13:00:37.846Z,64.19
2023-04-02T13:03:20.971Z,64.00
2023-04-02T13:05:55.893Z,63.48
2023-04-02T13:08:32.903Z,63.57
2023-04-02T13:11:03.861Z,63.05
2023-04-02T13:13:36.862Z,62.29
2023-04-02T13:16:29.772Z,61.54
2023-04-02T13:19:23.127Z,61.27
2023-04-02T13:21:52.754Z,61.44
2023-04-02T13:24:26.020Z,61.29
2023-04-02T13:26:58.145Z,61.05
2023-04-02T13:29:31.874Z,60.69
2023-04-02T13:32:03.289Z,60.85
2023-04-02T13:34:37.994Z,60.75
2023-04-02T13:37:07.176Z,61.39
2023-04-02T13:39:43.406Z,60.95
2023-04-02T13:42:13.908Z,61.48
2023-04-02T13:44:46.472Z,61.80
2023-04-02T13:47:16.771Z,61.36
2023-04-02T13:49:45.949Z,61.81
2023-04-02T13:52:17.926Z,62.32
2023-04-02T13:54:50.985Z,61.78
2023-04-02T14:00:07.364Z,62.33
2023-04-02T14:02:41.884Z,63.42
2023-04-02T14:05:29.295Z,63.92
2023-04-02T14:08:08.699Z,64.42
2023-04-02T14:11:01.413Z,64.61
2023-04-02T14:13:47.683Z,64.62
2023-04-02T14:16:35.195Z,65.23
2023-04-02T14:19:20.701Z,64.95
2023-04-02T14:22:05.696Z,65.10
2023-04-02T14:24:47.015Z,64.84
2023-04-02T14:27:33.478Z,65.30
2023-04-02T14:30:17.366Z,65.33
2023-04-02T14:33:04.882Z,65.54
2023-04-02T14:35:37.903Z,65.11
2023-04-02T14:38:21.623Z,65.60
2023-04-02T14:41:03.794Z,65.48
2023-04-02T14:43:43.033Z,65.58
2023-04-02T14:46:12.708Z,65.36
2023-04-02T14:48:52.502Z,65.87
2023-04-02T14:51:27.950Z,65.96
2023-04-02T14:54:03.331Z,66.18
2023-04-02T14:56:41.420Z,66.16
2023-04-02T14:59:31.035Z,66.54
2023-04-02T15:02:06.049Z,66.55
2023-04-02T15:04:40.018Z,66.38
2023-04-02T15:07:21.262Z,66.93
2023-04-02T15:09:57.184Z,66.74
2023-04-02T15:12:32.753Z,66.63
2023-04-02T15:15:10.763Z,66.61
2023-04-02T15:17:40.111Z,66.81
2023-04-02T15:20:16.481Z,67.15
2023-04-02T15:22:57.132Z,66.85
2023-04-02T15:25:35.624Z,66.48
2023-04-02T15:28:20.006Z,66.74
2023-04-02T15:30:58.586Z,66.79
2023-04-02T15:33:44.440Z,66.99
2023-04-02T15:36:48.487Z,67.13
2023-04-02T15:39:40.954Z,67.44
2023-04-02T15:42:18.365Z,67.13
2023-04-02T15:45:19.571Z,67.51
2023-04-02T15:48:18.228Z,67.73
2023-04-02T15:51:05.183Z,67.82
2023-04-02T15:53:47.881Z,67.32
2023-04-02T15:56:42.017Z,67.79
2023-04-02T15:59:36.765Z,67.54
2023-04-02T16:02:34.014Z,67.95
2023-04-02T16:05:12.133Z,67.27
2023-04-02T16:08:12.277Z,67.61
2023-04-02T16:10:44.730Z,67.25
2023-04-02T16:13:22.330Z,66.84
2023-04-02T16:15:56.078Z,66.89
2023-04-02T16:18:34.974Z,66.86
2023-04-02T16:21:06.580Z,66.47
2023-04-02T16:23:38.368Z,66.77
2023-04-02T16:26:23.054Z,66.66
2023-04-02T16:29:18.104Z,66.20
2023-04-02T16:31:55.647Z,66.39
2023-04-02T16:34:37.963Z,66.37
2023-04-02T16:37:17.349Z,66.80
2023-04-02T16:42:42.948Z,66.83
2023-04-02T16:45:30.970Z,67.18
2023-04-02T16:48:16.495Z,66.92
2023-04-02T16:51:10.729Z,66.70
2023-04-02T16:54:01.465Z,66.81
2023-04-02T16:56:46.503Z,66.67
2023-04-02T16:59:30.230Z,66.80
2023-04-02T17:02:10.261Z,66.71
2023-04-02T17:04:58.788Z,66.57
2023-04-02T17:07:38.232Z,66.74
2023-04-02T17:10:32.768Z,66.76
2023-04-02T17:13:17.502Z,66.63
2023-04-02T17:15:55.828Z,67.14
2023-04-02T17:18:26.706Z,66.98
2023-04-02T17:20:56.815Z,66.98
2023-04-02T17:23:26.829Z,67.32
2023-04-02T17:26:03.044Z,67.27
2023-04-02T17:28:47.661Z,66.89
2023-04-02T17:31:26.000Z,67.04
2023-04-02T17:33:55.472Z,66.95
2023-04-02T17:36:42.818Z,66.76
2023-04-02T17:39:35.478Z,66.96
2023-04-02T17:42:15.916Z,67.18
2023-04-02T17:44:56.917Z,66.81
2023-04-02T17:47:40.448Z,67.14
2023-04-02T17:50:39.458Z,67.25
2023-04-02T17:53:21.445Z,67.24
2023-04-02T17:55:56.440Z,66.71
2023-04-02T17:58:57.317Z,66.73
2023-04-02T18:01:33.939Z,67.14
2023-04-02T18:04:15.256Z,66.81
2023-04-02T18:06:56.261Z,66.94
2023-04-02T18:09:41.667Z,67.33
2023-04-02T18:12:26.787Z,67.19
2023-04-02T18:15:13.771Z,67.03
2023-04-02T18:17:50.442Z,66.82
2023-04-02T18:20:29.073Z,67.30
2023-04-02T18:23:06.474Z,66.67
2023-04-02T18:25:56.268Z,66.99
2023-04-02T18:28:39.871Z,67.06
2023-04-02T18:31:19.815Z,66.80
2023-04-02T18:34:32.492Z,67.43
2023-04-02T18:37:10.378Z,66.86
2023-04-02T18:39:54.519Z,67.07
2023-04-02T18:42:35.837Z,67.16
2023-04-02T18:45:14.063Z,66.99
2023-04-02T18:47:55.009Z,67.33
2023-04-02T18:50:31.448Z,67.01
2023-04-02T18:53:00.983Z,67.07
2023-04-02T18:55:32.343Z,66.99
2023-04-02T18:58:07.302Z,66.74
2023-04-02T19:00:41.002Z,67.03
2023-04-02T19:03:25.382Z,66.60
2023-04-02T19:06:00.684Z,67.00
2023-04-02T19:08:34.632Z,67.40
2023-04-02T19:11:09.286Z,67.36
2023-04-02T19:13:38.802Z,67.41
2023-04-02T19:16:24.375Z,67.34
2023-04-02T19:19:10.761Z,67.82
2023-04-02T19:21:57.112Z,68.02
2023-04-02T19:24:43.719Z,68.21
2023-04-02T19:27:22.342Z,67.92
2023-04-02T19:30:12.894Z,68.24
2023-04-02T19:32:51.946Z,68.73
2023-04-02T19:35:33.974Z,68.33
2023-04-02T19:38:16.360Z,68.47
2023-04-02T19:40:54.853Z,68.49
2023-04-02T19:43:25.831Z,68.88
2023-04-02T19:46:03.614Z,68.32
2023-04-02T19:48:38.973Z,69.02
2023-04-02T19:51:15.343Z,69.31
2023-04-02T19:53:44.725Z,69.36
2023-04-02T19:56:14.053Z,69.20
2023-04-02T19:58:56.658Z,69.07
2023-04-02T20:01:26.107Z,69.33
2023-04-02T20:04:00.757Z,68.73
2023-04-02T20:06:32.873Z,68.72
2023-04-02T20:09:03.088Z,69.19
2023-04-02T20:11:32.637Z,69.15
2023-04-02T20:14:01.855Z,69.20
2023-04-02T20:19:07.354Z,70.18
2023-04-02T20:21:39.833Z,71.51
2023-04-02T20:24:14.219Z,71.34
2023-04-02T20:26:43.604Z,71.29
2023-04-02T20:29:12.938Z,71.22
2023-04-02T20:31:42.154Z,70.86
2023-04-02T20:34:12.354Z,70.94
2023-04-02T20:36:49.202Z,71.54
2023-04-02T20:39:19.200Z,71.41
2023-04-02T20:41:48.840Z,71.23
2023-04-02T20:44:18.277Z,71.79
2023-04-02T20:46:47.548Z,71.79
2023-04-02T20:49:16.933Z,71.62
2023-04-02T20:51:48.644Z,71.72
2023-04-02T20:54:18.866Z,71.61
2023-04-02T20:56:48.039Z,71.80
2023-04-02T20:59:17.532Z,71.63
2023-04-02T21:01:47.937Z,71.37
2023-04-02T21:04:17.745Z,71.60
2023-04-02T21:06:48.931Z,72.08
2023-04-02T21:09:21.032Z,71.85
2023-04-02T21:11:50.699Z,72.14
2023-04-02T21:14:19.940Z,71.67
2023-04-02T21:16:49.465Z,72.01
2023-04-02T21:19:18.714Z,71.76
2023-04-02T21:21:50.138Z,71.70
2023-04-02T21:24:19.547Z,71.88
2023-04-02T21:26:49.183Z,71.47
2023-04-02T21:29:23.680Z,71.96
2023-04-02T21:31:53.040Z,71.90
2023-04-02T21:34:22.484Z,71.50
2023-04-02T21:36:55.238Z,71.75
2023-04-02T21:39:42.462Z,72.37
2023-04-02T21:42:13.532Z,72.05
2023-04-02T21:44:49.010Z,72.26
2023-04-02T21:47:18.408Z,72.69
2023-04-02T21:49:47.797Z,72.88
2023-04-02T21:52:19.326Z,73.48
2023-04-02T21:54:48.705Z,73.27
2023-04-02T21:57:19.041Z,73.21
2023-04-02T21:59:56.585Z,73.38
2023-04-02T22:02:25.958Z,72.80
2023-04-02T22:04:55.300Z,72.92
2023-04-02T22:07:31.712Z,72.60
2023-04-02T22:10:01.130Z,72.81
2023-04-02T22:12:30.828Z,72.58
2023-04-02T22:15:00.213Z,72.39
2023-04-02T22:17:29.468Z,72.54
2023-04-02T22:19:58.775Z,72.76
2023-04-02T22:22:28.519Z,72.77
2023-04-02T22:25:07.030Z,72.41
2023-04-02T22:27:36.358Z,72.86
2023-04-02T22:30:06.454Z,72.69
2023-04-02T22:32:36.237Z,73.15
2023-04-02T22:35:06.211Z,73.04
2023-04-02T22:37:35.880Z,72.96
2023-04-02T22:40:07.995Z,72.80
2023-04-02T22:42:38.039Z,73.18
2023-04-02T22:45:08.129Z,72.97
2023-04-02T22:47:42.564Z,72.65
2023-04-02T22:50:12.676Z,72.90
2023-04-02T22:53:00.164Z,73.18
2023-04-02T22:55:36.582Z,73.20
2023-04-02T22:58:05.786Z,73.14
2023-04-02T23:00:35.229Z,72.75
2023-04-02T23:03:05.277Z,72.90
2023-04-02T23:05:34.543Z,72.79
2023-04-02T23:08:03.773Z,73.14
2023-04-02T23:10:40.076Z,73.59
2023-04-02T23:13:09.597Z,73.92
2023-04-02T23:15:43.914Z,73.96
2023-04-02T23:18:13.452Z,73.66
2023-04-02T23:20:43.214Z,73.76
2023-04-02T23:23:27.806Z,74.04
2023-04-02T23:26:08.561Z,74.35
2023-04-02T23:28:39.323Z,74.13
2023-04-02T23:31:10.869Z,74.26
2023-04-02T23:33:40.180Z,74.49
2023-04-02T23:36:20.950Z,74.86
2023-04-02T23:38:50.441Z,74.70
2023-04-02T23:41:21.784Z,74.98
2023-04-02T23:43:54.065Z,75.28
2023-04-02T23:46:28.987Z,75.25
2023-04-02T23:48:59.438Z,75.44
2023-04-02T23:51:29.616Z,75.93
2023-04-02T23:53:59.002Z,75.71
2023-04-02T23:56:35.902Z,76.31
2023-04-02T23:59:05.052Z,76.56
